sensor_id;sensor_type;location;lat;lon;timestamp;P1;durP1;ratioP1;P2;durP2;ratioP2
22515;SDS011;11424;48.860;9.624;2022-11-25T00:00:41;1.4;;;1.7;;
22515;SDS011;11424;48.860;9.624;2022-11-25T00:05:41;1.4;;;1.5;;
22515;SDS011;11424;48.860;9.624;2022-11-25T00:10:41;1.5;;;2.2;;
22515;SDS011;11424;48.860;9.624;2022-11-25T00:15:41;1.4;;;2.7;;
22515;SDS011;11424;48.860;9.624;2022-11-25T00:20:41;1.3;;;1.4;;
22515;SDS011;11424;48.860;9.624;2022-11-25T00:25:41;1.1;;;1.4;;
22515;SDS011;11424;48.860;9.624;2022-11-25T00:30:41;1.2;;;1.3;;
22515;SDS011;11424;48.860;9.624;2022-11-25T00:35:41;3;;;6.1;;
22515;SDS011;11424;48.860;9.624;2022-11-25T00:40:41;3.7;;;9.8;;
22515;SDS011;11424;48.860;9.624;2022-11-25T00:45:41;4.7;;;10;;
22515;SDS011;11424;48.860;9.624;2022-11-25T00:50:41;4.2;;;8.4;;
22515;SDS011;11424;48.860;9.624;2022-11-25T00:55:41;4.3;;;8.5;;
22515;SDS011;11424;48.860;9.624;2022-11-25T01:00:41;4.2;;;8.7;;
22515;SDS011;11424;48.860;9.624;2022-11-25T01:05:41;4.3;;;8.4;;
22515;SDS011;11424;48.860;9.624;2022-11-25T01:10:41;4.6;;;9.5;;
22515;SDS011;11424;48.860;9.624;2022-11-25T01:15:41;4.5;;;8.7;;
22515;SDS011;11424;48.860;9.624;2022-11-25T01:20:41;2.3;;;3.1;;
22515;SDS011;11424;48.860;9.624;2022-11-25T01:25:41;1.9;;;2.1;;
22515;SDS011;11424;48.860;9.624;2022-11-25T01:30:41;1.6;;;1.8;;
22515;SDS011;11424;48.860;9.624;2022-11-25T01:35:41;1.8;;;2;;
22515;SDS011;11424;48.860;9.624;2022-11-25T01:40:41;1.9;;;2.1;;
22515;SDS011;11424;48.860;9.624;2022-11-25T01:45:41;2;;;2.2;;
22515;SDS011;11424;48.860;9.624;2022-11-25T01:50:41;1.6;;;2.1;;
22515;SDS011;11424;48.860;9.624;2022-11-25T01:55:41;1.6;;;1.7;;
22515;SDS011;11424;48.860;9.624;2022-11-25T02:00:41;1.5;;;1.6;;
22515;SDS011;11424;48.860;9.624;2022-11-25T02:05:43;1.7;;;1.8;;
22515;SDS011;11424;48.860;9.624;2022-11-25T02:10:41;1.7;;;1.8;;
22515;SDS011;11424;48.860;9.624;2022-11-25T02:15:41;1.7;;;2.2;;
22515;SDS011;11424;48.860;9.624;2022-11-25T02:20:41;1.7;;;2.2;;
22515;SDS011;11424;48.860;9.624;2022-11-25T02:25:41;1.7;;;2;;
22515;SDS011;11424;48.860;9.624;2022-11-25T02:30:41;1.6;;;1.7;;
22515;SDS011;11424;48.860;9.624;2022-11-25T02:35:41;1.6;;;2.4;;
22515;SDS011;11424;48.860;9.624;2022-11-25T02:40:43;2.1;;;2.3;;
22515;SDS011;11424;48.860;9.624;2022-11-25T02:45:43;1.7;;;2.2;;
22515;SDS011;11424;48.860;9.624;2022-11-25T02:50:41;1.5;;;2;;
22515;SDS011;11424;48.860;9.624;2022-11-25T02:55:41;1.4;;;1.7;;
22515;SDS011;11424;48.860;9.624;2022-11-25T03:00:41;1.5;;;2.7;;
22515;SDS011;11424;48.860;9.624;2022-11-25T03:05:41;1.4;;;2.2;;
22515;SDS011;11424;48.860;9.624;2022-11-25T03:10:41;1.4;;;1.8;;
22515;SDS011;11424;48.860;9.624;2022-11-25T03:15:41;1.2;;;1.3;;
22515;SDS011;11424;48.860;9.624;2022-11-25T03:20:41;1.4;;;1.9;;
22515;SDS011;11424;48.860;9.624;2022-11-25T03:25:41;1.2;;;1.9;;
22515;SDS011;11424;48.860;9.624;2022-11-25T03:30:41;1.9;;;2.5;;
22515;SDS011;11424;48.860;9.624;2022-11-25T03:35:41;1.7;;;2.4;;
22515;SDS011;11424;48.860;9.624;2022-11-25T03:40:41;1.5;;;2;;
22515;SDS011;11424;48.860;9.624;2022-11-25T03:45:41;1.2;;;1.3;;
22515;SDS011;11424;48.860;9.624;2022-11-25T03:50:41;1.3;;;1.9;;
22515;SDS011;11424;48.860;9.624;2022-11-25T03:55:41;1.2;;;1.4;;
22515;SDS011;11424;48.860;9.624;2022-11-25T04:00:41;1.4;;;2;;
22515;SDS011;11424;48.860;9.624;2022-11-25T04:05:41;1.5;;;2.2;;
22515;SDS011;11424;48.860;9.624;2022-11-25T04:10:41;1.6;;;2.3;;
22515;SDS011;11424;48.860;9.624;2022-11-25T04:15:43;2;;;2.4;;
22515;SDS011;11424;48.860;9.624;2022-11-25T04:20:41;1.8;;;3.2;;
22515;SDS011;11424;48.860;9.624;2022-11-25T04:25:41;2;;;3.2;;
22515;SDS011;11424;48.860;9.624;2022-11-25T04:30:41;2;;;2.8;;
22515;SDS011;11424;48.860;9.624;2022-11-25T04:35:41;2.1;;;3.6;;
22515;SDS011;11424;48.860;9.624;2022-11-25T04:40:41;2.4;;;4;;
22515;SDS011;11424;48.860;9.624;2022-11-25T04:45:41;2;;;3.3;;
22515;SDS011;11424;48.860;9.624;2022-11-25T04:50:41;1.6;;;2.3;;
22515;SDS011;11424;48.860;9.624;2022-11-25T04:55:41;1.8;;;3;;
22515;SDS011;11424;48.860;9.624;2022-11-25T05:00:41;1.6;;;1.8;;
22515;SDS011;11424;48.860;9.624;2022-11-25T05:05:41;2.2;;;3.1;;
22515;SDS011;11424;48.860;9.624;2022-11-25T05:10:41;2.3;;;3.3;;
22515;SDS011;11424;48.860;9.624;2022-11-25T05:15:41;2.1;;;3.5;;
22515;SDS011;11424;48.860;9.624;2022-11-25T05:20:41;2.8;;;3.2;;
22515;SDS011;11424;48.860;9.624;2022-11-25T05:25:41;2.8;;;4.6;;
22515;SDS011;11424;48.860;9.624;2022-11-25T05:30:41;2.7;;;4.1;;
22515;SDS011;11424;48.860;9.624;2022-11-25T05:35:41;2.7;;;3.3;;
22515;SDS011;11424;48.860;9.624;2022-11-25T05:40:41;2.2;;;3;;
22515;SDS011;11424;48.860;9.624;2022-11-25T05:45:41;2;;;3.6;;
22515;SDS011;11424;48.860;9.624;2022-11-25T05:50:41;1.6;;;2.4;;
22515;SDS011;11424;48.860;9.624;2022-11-25T05:55:41;3.3;;;4.4;;
22515;SDS011;11424;48.860;9.624;2022-11-25T06:00:41;3.9;;;5.3;;
22515;SDS011;11424;48.860;9.624;2022-11-25T06:05:41;3.9;;;5.6;;
22515;SDS011;11424;48.860;9.624;2022-11-25T06:10:41;2.5;;;3.1;;
22515;SDS011;11424;48.860;9.624;2022-11-25T06:15:41;2.1;;;3.4;;
22515;SDS011;11424;48.860;9.624;2022-11-25T06:20:41;4.3;;;6.4;;
22515;SDS011;11424;48.860;9.624;2022-11-25T06:25:41;5.8;;;8.7;;
22515;SDS011;11424;48.860;9.624;2022-11-25T06:30:41;5.2;;;8;;
22515;SDS011;11424;48.860;9.624;2022-11-25T06:35:41;4.5;;;7.4;;
22515;SDS011;11424;48.860;9.624;2022-11-25T06:40:41;4.5;;;6.9;;
22515;SDS011;11424;48.860;9.624;2022-11-25T06:45:41;6.4;;;10.2;;
22515;SDS011;11424;48.860;9.624;2022-11-25T06:50:41;6.8;;;11.4;;
22515;SDS011;11424;48.860;9.624;2022-11-25T06:55:41;7.5;;;15.7;;
22515;SDS011;11424;48.860;9.624;2022-11-25T07:00:42;7.2;;;14.3;;
22515;SDS011;11424;48.860;9.624;2022-11-25T07:05:41;5.5;;;11.5;;
22515;SDS011;11424;48.860;9.624;2022-11-25T07:10:41;6.4;;;10;;
22515;SDS011;11424;48.860;9.624;2022-11-25T07:15:41;6.5;;;10;;
22515;SDS011;11424;48.860;9.624;2022-11-25T07:20:41;6.9;;;9.5;;
22515;SDS011;11424;48.860;9.624;2022-11-25T07:25:41;7.4;;;11.8;;
22515;SDS011;11424;48.860;9.624;2022-11-25T07:30:41;5.5;;;9;;
22515;SDS011;11424;48.860;9.624;2022-11-25T07:35:41;5.1;;;7.7;;
22515;SDS011;11424;48.860;9.624;2022-11-25T07:40:41;4.4;;;5.9;;
22515;SDS011;11424;48.860;9.624;2022-11-25T07:45:41;3.4;;;4;;
22515;SDS011;11424;48.860;9.624;2022-11-25T07:50:41;3.2;;;4.6;;
22515;SDS011;11424;48.860;9.624;2022-11-25T07:55:41;2.7;;;3.3;;
22515;SDS011;11424;48.860;9.624;2022-11-25T08:00:41;2.5;;;3.3;;
22515;SDS011;11424;48.860;9.624;2022-11-25T08:05:41;3.3;;;6.2;;
22515;SDS011;11424;48.860;9.624;2022-11-25T08:10:41;2.7;;;4.2;;
22515;SDS011;11424;48.860;9.624;2022-11-25T08:15:41;2.4;;;3.8;;
22515;SDS011;11424;48.860;9.624;2022-11-25T08:20:41;2.3;;;4.3;;
22515;SDS011;11424;48.860;9.624;2022-11-25T08:25:41;1.9;;;2.8;;
22515;SDS011;11424;48.860;9.624;2022-11-25T08:30:41;1.3;;;1.8;;
22515;SDS011;11424;48.860;9.624;2022-11-25T08:35:41;1.2;;;1.6;;
22515;SDS011;11424;48.860;9.624;2022-11-25T08:40:42;1.4;;;1.9;;
22515;SDS011;11424;48.860;9.624;2022-11-25T08:45:41;1.6;;;2.8;;
22515;SDS011;11424;48.860;9.624;2022-11-25T08:50:41;1.6;;;2.3;;
22515;SDS011;11424;48.860;9.624;2022-11-25T08:55:41;1.3;;;1.9;;
22515;SDS011;11424;48.860;9.624;2022-11-25T09:00:41;1.2;;;1.7;;
22515;SDS011;11424;48.860;9.624;2022-11-25T09:05:41;1.1;;;1.2;;
22515;SDS011;11424;48.860;9.624;2022-11-25T09:10:41;1.3;;;2.3;;
22515;SDS011;11424;48.860;9.624;2022-11-25T09:15:41;1.5;;;1.7;;
22515;SDS011;11424;48.860;9.624;2022-11-25T09:20:41;1.8;;;2.7;;
22515;SDS011;11424;48.860;9.624;2022-11-25T09:25:41;1.6;;;2.6;;
22515;SDS011;11424;48.860;9.624;2022-11-25T09:30:41;1.4;;;1.5;;
22515;SDS011;11424;48.860;9.624;2022-11-25T09:35:41;1.6;;;1.9;;
22515;SDS011;11424;48.860;9.624;2022-11-25T09:40:42;1.2;;;1.2;;
22515;SDS011;11424;48.860;9.624;2022-11-25T09:45:44;1.1;;;1.2;;
22515;SDS011;11424;48.860;9.624;2022-11-25T09:50:44;1.3;;;1.9;;
22515;SDS011;11424;48.860;9.624;2022-11-25T09:55:43;1.3;;;1.7;;
22515;SDS011;11424;48.860;9.624;2022-11-25T10:00:42;1.6;;;2.2;;
22515;SDS011;11424;48.860;9.624;2022-11-25T10:05:42;1.7;;;2.3;;
22515;SDS011;11424;48.860;9.624;2022-11-25T10:10:42;1.1;;;1.6;;
22515;SDS011;11424;48.860;9.624;2022-11-25T10:15:42;1.1;;;1.2;;
22515;SDS011;11424;48.860;9.624;2022-11-25T10:20:41;3.2;;;6.3;;
22515;SDS011;11424;48.860;9.624;2022-11-25T10:25:43;1.2;;;1.5;;
22515;SDS011;11424;48.860;9.624;2022-11-25T10:30:42;1;;;1.5;;
22515;SDS011;11424;48.860;9.624;2022-11-25T10:35:42;1.1;;;1.7;;
22515;SDS011;11424;48.860;9.624;2022-11-25T10:40:42;1.1;;;1.2;;
22515;SDS011;11424;48.860;9.624;2022-11-25T10:45:43;1.2;;;2.5;;
22515;SDS011;11424;48.860;9.624;2022-11-25T10:50:43;1.1;;;1.5;;
22515;SDS011;11424;48.860;9.624;2022-11-25T10:55:56;1.2;;;1.8;;
22515;SDS011;11424;48.860;9.624;2022-11-25T11:00:41;1.2;;;1.6;;
22515;SDS011;11424;48.860;9.624;2022-11-25T11:05:43;1;;;1.2;;
22515;SDS011;11424;48.860;9.624;2022-11-25T11:10:41;1.2;;;1.4;;
22515;SDS011;11424;48.860;9.624;2022-11-25T11:15:43;1.3;;;1.5;;
22515;SDS011;11424;48.860;9.624;2022-11-25T11:20:44;1.6;;;3.2;;
22515;SDS011;11424;48.860;9.624;2022-11-25T11:25:42;1.7;;;2.5;;
22515;SDS011;11424;48.860;9.624;2022-11-25T11:30:42;1.7;;;2.1;;
22515;SDS011;11424;48.860;9.624;2022-11-25T11:35:45;1.4;;;1.5;;
22515;SDS011;11424;48.860;9.624;2022-11-25T11:40:43;1.4;;;1.8;;
22515;SDS011;11424;48.860;9.624;2022-11-25T11:45:47;1.3;;;1.4;;
22515;SDS011;11424;48.860;9.624;2022-11-25T11:50:42;1.9;;;2.4;;
22515;SDS011;11424;48.860;9.624;2022-11-25T11:55:47;1.2;;;1.3;;
22515;SDS011;11424;48.860;9.624;2022-11-25T12:00:43;1.1;;;1.3;;
22515;SDS011;11424;48.860;9.624;2022-11-25T12:05:41;1.3;;;2.3;;
22515;SDS011;11424;48.860;9.624;2022-11-25T12:10:42;1.4;;;2.2;;
22515;SDS011;11424;48.860;9.624;2022-11-25T12:15:43;1.3;;;1.4;;
22515;SDS011;11424;48.860;9.624;2022-11-25T12:20:43;1.5;;;2.1;;
22515;SDS011;11424;48.860;9.624;2022-11-25T12:25:41;1.3;;;1.4;;
22515;SDS011;11424;48.860;9.624;2022-11-25T12:30:44;1.2;;;1.7;;
22515;SDS011;11424;48.860;9.624;2022-11-25T12:35:44;1.3;;;2.3;;
22515;SDS011;11424;48.860;9.624;2022-11-25T12:40:44;1.8;;;3.3;;
22515;SDS011;11424;48.860;9.624;2022-11-25T12:45:41;1.2;;;1.3;;
22515;SDS011;11424;48.860;9.624;2022-11-25T12:50:45;2.3;;;2.7;;
22515;SDS011;11424;48.860;9.624;2022-11-25T12:55:41;3.3;;;4.8;;
22515;SDS011;11424;48.860;9.624;2022-11-25T13:00:53;1.9;;;2.7;;
22515;SDS011;11424;48.860;9.624;2022-11-25T13:05:51;1.9;;;3.1;;
22515;SDS011;11424;48.860;9.624;2022-11-25T13:11:02;2.2;;;2.7;;
22515;SDS011;11424;48.860;9.624;2022-11-25T13:15:42;2.3;;;3.2;;
22515;SDS011;11424;48.860;9.624;2022-11-25T13:20:43;2.5;;;3.2;;
22515;SDS011;11424;48.860;9.624;2022-11-25T13:25:43;2.3;;;3;;
22515;SDS011;11424;48.860;9.624;2022-11-25T13:30:41;2.2;;;2.4;;
22515;SDS011;11424;48.860;9.624;2022-11-25T13:35:49;2.4;;;3;;
22515;SDS011;11424;48.860;9.624;2022-11-25T13:40:41;2.2;;;2.6;;
22515;SDS011;11424;48.860;9.624;2022-11-25T13:45:41;2.1;;;2.3;;
22515;SDS011;11424;48.860;9.624;2022-11-25T13:50:41;2.2;;;2.4;;
22515;SDS011;11424;48.860;9.624;2022-11-25T13:55:42;2.6;;;2.9;;
22515;SDS011;11424;48.860;9.624;2022-11-25T14:00:46;2.5;;;4;;
22515;SDS011;11424;48.860;9.624;2022-11-25T14:05:48;2.3;;;2.8;;
22515;SDS011;11424;48.860;9.624;2022-11-25T14:10:43;2.2;;;2.9;;
22515;SDS011;11424;48.860;9.624;2022-11-25T14:15:43;2.1;;;3.8;;
22515;SDS011;11424;48.860;9.624;2022-11-25T14:20:42;2.6;;;3.6;;
22515;SDS011;11424;48.860;9.624;2022-11-25T14:25:43;2.4;;;2.8;;
22515;SDS011;11424;48.860;9.624;2022-11-25T14:30:42;2.5;;;3.9;;
22515;SDS011;11424;48.860;9.624;2022-11-25T14:35:42;3.9;;;5.6;;
22515;SDS011;11424;48.860;9.624;2022-11-25T14:40:43;3.7;;;4.6;;
22515;SDS011;11424;48.860;9.624;2022-11-25T14:45:41;3.3;;;5.2;;
22515;SDS011;11424;48.860;9.624;2022-11-25T14:50:52;2.3;;;3.8;;
22515;SDS011;11424;48.860;9.624;2022-11-25T14:55:41;1.9;;;2.2;;
22515;SDS011;11424;48.860;9.624;2022-11-25T15:00:48;2.5;;;4.4;;
22515;SDS011;11424;48.860;9.624;2022-11-25T15:05:41;2.8;;;4;;
22515;SDS011;11424;48.860;9.624;2022-11-25T15:10:42;3;;;3.9;;
22515;SDS011;11424;48.860;9.624;2022-11-25T15:15:43;3.5;;;5;;
22515;SDS011;11424;48.860;9.624;2022-11-25T15:20:43;2.7;;;3.6;;
22515;SDS011;11424;48.860;9.624;2022-11-25T15:25:47;2.1;;;2.6;;
22515;SDS011;11424;48.860;9.624;2022-11-25T15:30:44;1.9;;;3.3;;
22515;SDS011;11424;48.860;9.624;2022-11-25T15:35:42;1.7;;;2.7;;
22515;SDS011;11424;48.860;9.624;2022-11-25T15:40:41;1.8;;;3.3;;
22515;SDS011;11424;48.860;9.624;2022-11-25T15:45:42;1.8;;;2.7;;
22515;SDS011;11424;48.860;9.624;2022-11-25T15:50:42;2;;;3.7;;
22515;SDS011;11424;48.860;9.624;2022-11-25T15:55:42;2.1;;;3;;
22515;SDS011;11424;48.860;9.624;2022-11-25T16:00:45;1.7;;;2.9;;
22515;SDS011;11424;48.860;9.624;2022-11-25T16:05:50;1.8;;;2.2;;
22515;SDS011;11424;48.860;9.624;2022-11-25T16:10:48;1.8;;;2.9;;
22515;SDS011;11424;48.860;9.624;2022-11-25T16:15:42;1.6;;;2.2;;
22515;SDS011;11424;48.860;9.624;2022-11-25T16:20:45;1.8;;;2.5;;
22515;SDS011;11424;48.860;9.624;2022-11-25T16:25:46;2;;;3;;
22515;SDS011;11424;48.860;9.624;2022-11-25T16:30:42;1.6;;;2.1;;
22515;SDS011;11424;48.860;9.624;2022-11-25T16:35:43;1.8;;;2.4;;
22515;SDS011;11424;48.860;9.624;2022-11-25T16:40:42;1.8;;;2;;
22515;SDS011;11424;48.860;9.624;2022-11-25T16:45:42;1.7;;;2.7;;
22515;SDS011;11424;48.860;9.624;2022-11-25T16:50:42;1.3;;;1.8;;
22515;SDS011;11424;48.860;9.624;2022-11-25T16:55:42;1.5;;;1.6;;
22515;SDS011;11424;48.860;9.624;2022-11-25T17:00:42;1.4;;;1.9;;
22515;SDS011;11424;48.860;9.624;2022-11-25T17:05:42;1.6;;;2.4;;
22515;SDS011;11424;48.860;9.624;2022-11-25T17:10:42;1.7;;;2.7;;
22515;SDS011;11424;48.860;9.624;2022-11-25T17:15:42;1.6;;;2.3;;
22515;SDS011;11424;48.860;9.624;2022-11-25T17:20:42;1.7;;;2.1;;
22515;SDS011;11424;48.860;9.624;2022-11-25T17:25:43;2.1;;;2.5;;
22515;SDS011;11424;48.860;9.624;2022-11-25T17:30:42;2.1;;;3.3;;
22515;SDS011;11424;48.860;9.624;2022-11-25T17:35:42;4.4;;;6.8;;
22515;SDS011;11424;48.860;9.624;2022-11-25T17:40:42;15.4;;;25.6;;
22515;SDS011;11424;48.860;9.624;2022-11-25T17:45:42;9.4;;;14.5;;
22515;SDS011;11424;48.860;9.624;2022-11-25T17:50:42;5.1;;;7;;
22515;SDS011;11424;48.860;9.624;2022-11-25T17:55:42;4.6;;;6.2;;
22515;SDS011;11424;48.860;9.624;2022-11-25T18:00:42;3.6;;;4.5;;
22515;SDS011;11424;48.860;9.624;2022-11-25T18:05:42;3.9;;;5.4;;
22515;SDS011;11424;48.860;9.624;2022-11-25T18:10:42;3.9;;;5.4;;
22515;SDS011;11424;48.860;9.624;2022-11-25T18:15:42;3.9;;;4.8;;
22515;SDS011;11424;48.860;9.624;2022-11-25T18:20:42;3.8;;;5.2;;
22515;SDS011;11424;48.860;9.624;2022-11-25T18:25:42;3.4;;;3.8;;
22515;SDS011;11424;48.860;9.624;2022-11-25T18:30:42;3;;;3.8;;
22515;SDS011;11424;48.860;9.624;2022-11-25T18:35:42;2.4;;;3.6;;
22515;SDS011;11424;48.860;9.624;2022-11-25T18:40:42;2;;;2.3;;
22515;SDS011;11424;48.860;9.624;2022-11-25T18:45:42;2;;;2.3;;
22515;SDS011;11424;48.860;9.624;2022-11-25T18:50:42;2.4;;;3.5;;
22515;SDS011;11424;48.860;9.624;2022-11-25T18:55:42;2;;;2.3;;
22515;SDS011;11424;48.860;9.624;2022-11-25T19:00:42;2;;;2.6;;
22515;SDS011;11424;48.860;9.624;2022-11-25T19:05:42;3.6;;;7;;
22515;SDS011;11424;48.860;9.624;2022-11-25T19:10:42;3.9;;;6.7;;
22515;SDS011;11424;48.860;9.624;2022-11-25T19:15:42;4.6;;;7;;
22515;SDS011;11424;48.860;9.624;2022-11-25T19:20:42;3.8;;;5.6;;
22515;SDS011;11424;48.860;9.624;2022-11-25T19:25:42;3.5;;;5.3;;
22515;SDS011;11424;48.860;9.624;2022-11-25T19:30:42;3.7;;;7.1;;
22515;SDS011;11424;48.860;9.624;2022-11-25T19:35:42;3.9;;;6.5;;
22515;SDS011;11424;48.860;9.624;2022-11-25T19:40:42;1.9;;;2.4;;
22515;SDS011;11424;48.860;9.624;2022-11-25T19:45:42;3.4;;;5.3;;
22515;SDS011;11424;48.860;9.624;2022-11-25T19:50:42;1.9;;;3.2;;
22515;SDS011;11424;48.860;9.624;2022-11-25T19:55:42;1.7;;;1.9;;
22515;SDS011;11424;48.860;9.624;2022-11-25T20:00:43;1.9;;;3.2;;
22515;SDS011;11424;48.860;9.624;2022-11-25T20:05:42;2.7;;;4.2;;
22515;SDS011;11424;48.860;9.624;2022-11-25T20:10:42;2.2;;;3.3;;
22515;SDS011;11424;48.860;9.624;2022-11-25T20:15:42;1.8;;;2.8;;
22515;SDS011;11424;48.860;9.624;2022-11-25T20:20:42;2.2;;;3.5;;
22515;SDS011;11424;48.860;9.624;2022-11-25T20:25:43;2;;;2.9;;
22515;SDS011;11424;48.860;9.624;2022-11-25T20:30:42;2.1;;;3.7;;
22515;SDS011;11424;48.860;9.624;2022-11-25T20:35:43;2;;;3.7;;
22515;SDS011;11424;48.860;9.624;2022-11-25T20:40:42;1.8;;;2.9;;
22515;SDS011;11424;48.860;9.624;2022-11-25T20:45:42;2.1;;;2.3;;
22515;SDS011;11424;48.860;9.624;2022-11-25T20:50:42;2.1;;;3;;
22515;SDS011;11424;48.860;9.624;2022-11-25T20:55:42;2;;;3.1;;
22515;SDS011;11424;48.860;9.624;2022-11-25T21:00:42;2.6;;;3.1;;
22515;SDS011;11424;48.860;9.624;2022-11-25T21:05:42;1.9;;;2.3;;
22515;SDS011;11424;48.860;9.624;2022-11-25T21:10:42;2.1;;;3.6;;
22515;SDS011;11424;48.860;9.624;2022-11-25T21:15:42;2.1;;;4.1;;
22515;SDS011;11424;48.860;9.624;2022-11-25T21:20:42;3;;;6.1;;
22515;SDS011;11424;48.860;9.624;2022-11-25T21:25:42;3.1;;;5.1;;
22515;SDS011;11424;48.860;9.624;2022-11-25T21:30:42;2.5;;;3.6;;
22515;SDS011;11424;48.860;9.624;2022-11-25T21:35:43;2.6;;;4.4;;
22515;SDS011;11424;48.860;9.624;2022-11-25T21:40:43;2.7;;;3.8;;
22515;SDS011;11424;48.860;9.624;2022-11-25T21:45:42;2.1;;;3;;
22515;SDS011;11424;48.860;9.624;2022-11-25T21:50:42;2.5;;;3.4;;
22515;SDS011;11424;48.860;9.624;2022-11-25T21:55:42;2.1;;;4;;
22515;SDS011;11424;48.860;9.624;2022-11-25T22:00:43;2.2;;;3.2;;
22515;SDS011;11424;48.860;9.624;2022-11-25T22:05:42;2.2;;;3.6;;
22515;SDS011;11424;48.860;9.624;2022-11-25T22:10:43;1.9;;;3.2;;
22515;SDS011;11424;48.860;9.624;2022-11-25T22:15:42;2;;;3.8;;
22515;SDS011;11424;48.860;9.624;2022-11-25T22:20:42;2;;;4;;
22515;SDS011;11424;48.860;9.624;2022-11-25T22:25:42;2;;;3.6;;
22515;SDS011;11424;48.860;9.624;2022-11-25T22:30:42;1.7;;;3;;
22515;SDS011;11424;48.860;9.624;2022-11-25T22:35:42;1.7;;;2.1;;
22515;SDS011;11424;48.860;9.624;2022-11-25T22:40:42;1.7;;;2.8;;
22515;SDS011;11424;48.860;9.624;2022-11-25T22:45:42;1.7;;;2;;
22515;SDS011;11424;48.860;9.624;2022-11-25T22:50:42;1.7;;;2.6;;
22515;SDS011;11424;48.860;9.624;2022-11-25T22:55:42;1.6;;;2.6;;
22515;SDS011;11424;48.860;9.624;2022-11-25T23:00:43;1.7;;;3.4;;
22515;SDS011;11424;48.860;9.624;2022-11-25T23:05:42;1.6;;;3.3;;
22515;SDS011;11424;48.860;9.624;2022-11-25T23:10:42;1.7;;;2.7;;
22515;SDS011;11424;48.860;9.624;2022-11-25T23:15:45;1.8;;;2.3;;
22515;SDS011;11424;48.860;9.624;2022-11-25T23:20:42;1.7;;;2.2;;
22515;SDS011;11424;48.860;9.624;2022-11-25T23:25:42;1.7;;;4.1;;
22515;SDS011;11424;48.860;9.624;2022-11-25T23:30:44;1.9;;;3.5;;
22515;SDS011;11424;48.860;9.624;2022-11-25T23:35:42;1.6;;;2.3;;
22515;SDS011;11424;48.860;9.624;2022-11-25T23:40:42;2.1;;;3.8;;
22515;SDS011;11424;48.860;9.624;2022-11-25T23:45:44;1.8;;;2.6;;
22515;SDS011;11424;48.860;9.624;2022-11-25T23:50:42;2.1;;;3.7;;
22515;SDS011;11424;48.860;9.624;2022-11-25T23:55:42;2.1;;;3.4;;
